South Range, Michigan
Current Conditions -  °F | °C
As of 9:53 PM on Saturday 22 Nov 2014 (Local Time) from KCMX Reporting Station
Overcast Overcast  
Wind Chill: 30°   Ceiling: 1200
Heat Index: 35°   Visibility: 9mi
Dew Point: 30°   Wind: 6mph
Humidity: 82%   Direction: 140°SE
Pressure: 29.66"   Gusts: NA
Location:  47.07°N, 88.64°W
Report Text: KCMX 230253Z AUTO 14005KT 9SM OVC012 02/M01 A2966 RMK AO2 SLP055 T00171011 55004
Loading
Personal Weather Stations






























Interactive Weather Map New forecast layout! Learn more

10-Day Weather Forecast

Advertisements
Track Severe Weather on mobile